Time;durP1;ratioP1;P1;durP2;ratioP2;P2;SDS_P1;SDS_P2;PMS_P1;PMS_P2;Temp;Humidity;BMP_temperature;BMP_pressure;BME280_temperature;BME280_humidity;BME280_pressure;Samples;Min_cycle;Max_cycle;Signal;HPM_P1;HPM_P2
2022/05/04 00:01:06;;;;;;;;;41.33;36.00;;;;;10.89;100.00;99566.94;6317778;20;3588271;-51
2022/05/04 00:03:39;;;;;;;;;42.33;36.33;;;;;10.70;100.00;99568.13;6282494;20;2856640;-52
2022/05/04 00:06:09;;;;;;;;;40.33;34.00;;;;;10.52;100.00;99561.25;6319285;20;3593999;-47
2022/05/04 00:08:39;;;;;;;;;38.00;35.33;;;;;10.48;100.00;99557.03;6283610;20;3608720;-49
2022/05/04 00:11:08;;;;;;;;;42.33;34.33;;;;;10.57;100.00;99559.13;6320675;20;3596051;-46
2022/05/04 00:13:37;;;;;;;;;40.67;37.33;;;;;10.78;100.00;99559.56;6288100;20;3612749;-48
2022/05/04 00:16:06;;;;;;;;;41.67;34.33;;;;;10.86;100.00;99557.25;6284916;20;2858583;-48
2022/05/04 00:18:35;;;;;;;;;33.67;32.67;;;;;10.82;100.00;99557.53;6314127;20;3571326;-45
2022/05/04 00:21:07;;;;;;;;;39.67;33.33;;;;;10.73;100.00;99551.81;6315335;20;3639846;-50
2022/05/04 00:23:36;;;;;;;;;33.00;31.00;;;;;10.47;100.00;99560.66;6285915;20;2835720;-48
2022/05/04 00:26:05;;;;;;;;;35.00;32.50;;;;;10.69;100.00;99555.66;6282533;20;2833585;-49
2022/05/04 00:28:34;;;;;;;;;32.33;30.00;;;;;10.37;100.00;99568.44;6283498;20;3612781;-47
2022/05/04 00:31:03;;;;;;;;;27.00;26.00;;;;;10.09;100.00;99566.59;6313646;20;2850243;-47
2022/05/04 00:33:32;;;;;;;;;28.00;24.50;;;;;10.01;100.00;99564.38;6284627;20;2842969;-48
2022/05/04 00:36:01;;;;;;;;;30.00;28.00;;;;;10.22;100.00;99569.38;6283025;20;2845223;-49
2022/05/04 00:38:30;;;;;;;;;32.00;29.00;;;;;9.80;100.00;99569.22;6284690;20;2862819;-51
2022/05/04 00:40:59;;;;;;;;;37.33;28.67;;;;;9.93;100.00;99579.22;6280900;20;3608190;-49
2022/05/04 00:43:28;;;;;;;;;29.00;25.00;;;;;9.96;100.00;99576.34;6318097;20;3581495;-50
2022/05/04 00:45:57;;;;;;;;;33.33;27.67;;;;;9.98;100.00;99574.41;6314327;20;2860789;-48
2022/05/04 00:48:27;;;;;;;;;31.00;28.67;;;;;10.02;100.00;99575.97;6314600;20;2854754;-51
2022/05/04 00:50:56;;;;;;;;;28.33;27.00;;;;;9.97;100.00;99567.31;6315218;20;3590459;-51
2022/05/04 00:53:26;;;;;;;;;38.33;33.67;;;;;9.82;100.00;99583.41;6279626;20;3606468;-46
2022/05/04 00:55:56;;;;;;;;;32.00;30.33;;;;;9.73;100.00;99575.91;6317019;20;3602325;-49
2022/05/04 01:01:14;;;;;;;;;39.00;33.33;;;;;10.35;100.00;99590.94;6281686;20;3622152;-47
2022/05/04 01:03:43;;;;;;;;;38.00;33.33;;;;;10.13;100.00;99591.41;6310849;20;2848160;-49
2022/05/04 01:06:12;;;;;;;;;36.00;33.67;;;;;9.94;100.00;99583.63;6317601;20;3600253;-46
2022/05/04 01:08:43;;;;;;;;;34.00;29.33;;;;;10.21;100.00;99587.28;6282206;20;2864721;-48
2022/05/04 01:11:12;;;;;;;;;33.33;32.67;;;;;10.11;100.00;99591.50;6314791;20;3600746;-47
2022/05/04 01:13:41;;;;;;;;;38.50;34.00;;;;;10.04;100.00;99596.38;6281012;20;2852358;-47
2022/05/04 01:16:09;;;;;;;;;34.67;33.33;;;;;10.50;100.00;99598.91;6286877;20;3586706;-49
2022/05/04 01:18:39;;;;;;;;;44.33;37.00;;;;;10.52;100.00;99591.63;6279428;20;2862799;-48
2022/05/04 01:21:08;;;;;;;;;36.33;33.00;;;;;10.62;100.00;99597.28;6316594;20;3585727;-48
2022/05/04 01:23:38;;;;;;;;;40.67;35.67;;;;;10.85;100.00;99603.88;6282890;20;2855453;-47
2022/05/04 01:26:06;;;;;;;;;47.67;39.00;;;;;10.77;99.35;99596.31;6316300;20;3595032;-49
2022/05/04 01:28:35;;;;;;;;;44.00;37.50;;;;;10.41;100.00;99593.28;6283175;20;2850578;-50
2022/05/04 01:31:04;;;;;;;;;29.33;29.33;;;;;10.40;100.00;99591.53;6283824;20;3600257;-47
2022/05/04 01:33:33;;;;;;;;;35.33;29.67;;;;;10.30;100.00;99592.13;6282818;20;2864962;-47
2022/05/04 01:36:03;;;;;;;;;36.33;31.67;;;;;10.15;100.00;99581.44;6315348;20;3608850;-50
2022/05/04 01:38:32;;;;;;;;;33.67;33.33;;;;;9.80;100.00;99585.31;6283653;20;3595200;-48
2022/05/04 01:41:03;;;;;;;;;35.67;32.67;;;;;10.00;100.00;99585.91;6275662;20;2860832;-48
2022/05/04 01:43:32;;;;;;;;;34.33;32.00;;;;;10.04;100.00;99588.31;6316291;20;3606537;-50
2022/05/04 01:46:01;;;;;;;;;32.33;32.33;;;;;9.86;100.00;99584.94;6282097;20;2850697;-48
2022/05/04 01:48:30;;;;;;;;;35.67;30.67;;;;;9.87;100.00;99578.63;6312412;20;3610856;-49
2022/05/04 01:51:00;;;;;;;;;36.00;32.00;;;;;10.22;100.00;99572.06;6278150;20;3603567;-51
2022/05/04 01:53:30;;;;;;;;;33.33;33.33;;;;;9.72;100.00;99579.53;6314006;20;2856592;-47
2022/05/04 01:56:01;;;;;;;;;39.00;34.00;;;;;9.74;100.00;99576.75;6313968;20;3603486;-49
2022/05/04 01:58:31;;;;;;;;;34.67;33.67;;;;;9.81;100.00;99578.97;6280845;20;2867045;-47
2022/05/04 02:01:01;;;;;;;;;31.00;31.00;;;;;9.44;100.00;99581.16;6307953;20;3602401;-48
2022/05/04 02:03:31;;;;;;;;;33.33;28.33;;;;;9.42;100.00;99571.47;6309694;20;2846237;-48
2022/05/04 02:06:01;;;;;;;;;32.00;29.00;;;;;9.42;100.00;99580.38;6308625;20;3604429;-49
2022/05/04 02:08:30;;;;;;;;;25.50;24.50;;;;;9.64;100.00;99579.16;6306854;20;2848182;-49
2022/05/04 02:10:59;;;;;;;;;32.00;26.00;;;;;9.87;100.00;99578.63;6278172;20;2856607;-46
2022/05/04 02:13:28;;;;;;;;;34.00;30.50;;;;;9.61;100.00;99572.16;6278527;20;3537726;-49
2022/05/04 02:15:57;;;;;;;;;34.00;29.00;;;;;9.54;100.00;99577.97;6312692;20;2860856;-49
2022/05/04 02:18:26;;;;;;;;;33.33;31.00;;;;;9.91;100.00;99573.94;6313671;20;3596134;-49
2022/05/04 02:20:56;;;;;;;;;32.00;29.33;;;;;9.39;100.00;99574.34;6279589;20;2860778;-47
2022/05/04 02:23:24;;;;;;;;;34.00;28.00;;;;;9.24;100.00;99576.09;6314698;20;3602342;-49
2022/05/04 02:25:54;;;;;;;;;42.67;35.67;;;;;9.32;100.00;99576.53;6279753;20;2864001;-48
2022/05/04 02:28:24;;;;;;;;;34.00;31.67;;;;;9.02;100.00;99577.34;6312146;20;2864312;-49
2022/05/04 02:30:52;;;;;;;;;28.50;25.00;;;;;9.40;100.00;99578.75;6309010;20;2844041;-48
2022/05/04 02:33:21;;;;;;;;;29.00;28.00;;;;;9.73;100.00;99575.91;6280409;20;2839873;-50
2022/05/04 02:38:38;;;;;;;;;31.00;29.00;;;;;8.99;100.00;99580.19;6281898;20;2852343;-50
2022/05/04 02:41:07;;;;;;;;;32.00;29.50;;;;;9.16;100.00;99579.25;6279338;20;2847178;-53
2022/05/04 02:43:36;;;;;;;;;32.00;29.33;;;;;9.07;100.00;99585.13;6284513;20;3590930;-48
2022/05/04 02:46:22;;;;;;;;;39.67;33.33;;;;;9.43;100.00;99590.16;6278006;20;3612702;-51
2022/05/04 02:48:51;;;;;;;;;37.67;34.33;;;;;9.30;100.00;99589.16;6313766;20;3597177;-49
2022/05/04 02:51:21;;;;;;;;;37.33;33.67;;;;;9.30;100.00;99581.13;6279431;20;3613896;-49
2022/05/04 02:53:50;;;;;;;;;36.67;34.00;;;;;9.24;100.00;99589.50;6319695;20;3614809;-46
2022/05/04 02:56:19;;;;;;;;;36.33;27.00;;;;;9.22;100.00;99586.06;6286491;20;2872116;-49
2022/05/04 02:58:51;;;;;;;;;37.33;32.33;;;;;9.29;100.00;99590.09;6316026;20;3605420;-47
2022/05/04 03:04:08;;;;;;;;;36.00;33.67;;;;;9.16;100.00;99586.38;6285648;20;2861791;-46
2022/05/04 03:06:41;;;;;;;;;36.00;32.00;;;;;9.06;100.00;99579.84;6318014;20;2745189;-50
2022/05/04 03:09:12;;;;;;;;;38.00;31.33;;;;;9.06;100.00;99585.19;6284506;20;3607534;-49
2022/05/04 03:11:56;;;;;;;;;38.33;34.00;;;;;8.97;100.00;99592.78;6315856;20;2853900;-47
2022/05/04 03:14:27;;;;;;;;;33.67;33.67;;;;;8.62;100.00;99592.09;6320601;20;3597120;-46
2022/05/04 03:16:58;;;;;;;;;72.00;54.00;;;;;8.42;100.00;99590.50;6283854;20;3626378;-46
2022/05/04 03:19:28;;;;;;;;;71.67;51.00;;;;;8.26;100.00;99584.22;6317114;20;3636673;-49
2022/05/04 03:21:57;;;;;;;;;66.00;47.00;;;;;8.10;100.00;99585.03;6313510;20;3643994;-49
2022/05/04 03:24:26;;;;;;;;;42.00;39.00;;;;;8.04;100.00;99582.69;6282076;20;2830473;-47
2022/05/04 03:26:55;;;;;;;;;42.67;35.67;;;;;8.13;100.00;99587.53;6283009;20;2875340;-50
2022/05/04 03:29:24;;;;;;;;;46.33;40.00;;;;;7.84;100.00;99599.75;6315429;20;3586711;-49
2022/05/04 03:31:54;;;;;;;;;36.00;32.33;;;;;8.07;100.00;99595.91;6284358;20;2854551;-52
2022/05/04 03:34:23;;;;;;;;;47.00;40.00;;;;;8.00;100.00;99609.66;6316194;20;2846149;-49
2022/05/04 03:36:51;;;;;;;;;44.33;37.00;;;;;8.56;100.00;99620.06;6287455;20;3607568;-51
2022/05/04 03:39:21;;;;;;;;;35.67;31.33;;;;;8.68;100.00;99607.81;6283693;20;3608592;-46
2022/05/04 03:41:50;;;;;;;;;34.33;27.00;;;;;8.40;100.00;99613.81;6314220;20;2848165;-47
2022/05/04 03:44:19;;;;;;;;;24.00;21.50;;;;;8.62;100.00;99618.84;6315881;20;2850926;-49
2022/05/04 03:46:53;;;;;;;;;26.00;24.50;;;;;8.50;100.00;99617.69;6283165;20;2852424;-50
2022/05/04 03:49:23;;;;;;;;;29.50;24.50;;;;;8.06;100.00;99612.03;6282557;20;2850281;-47
2022/05/04 03:51:53;;;;;;;;;28.00;25.00;;;;;8.07;100.00;99621.78;6282506;20;2830582;-47
2022/05/04 03:54:23;;;;;;;;;35.00;30.00;;;;;8.27;100.00;99613.56;6284879;20;2863912;-48
2022/05/04 03:56:52;;;;;;;;;36.67;30.67;;;;;8.33;100.00;99615.06;6316259;20;2862830;-48
2022/05/04 03:59:21;;;;;;;;;31.33;28.67;;;;;8.75;100.00;99619.06;6317087;20;3602320;-48
2022/05/04 04:01:50;;;;;;;;;38.00;32.00;;;;;9.01;100.00;99621.13;6280648;20;2865130;-49
2022/05/04 04:04:19;;;;;;;;;34.33;29.67;;;;;8.78;100.00;99630.44;6316520;20;3602370;-51
2022/05/04 04:06:48;;;;;;;;;33.00;28.00;;;;;8.98;100.00;99632.03;6280222;20;2851426;-49
2022/05/04 04:09:17;;;;;;;;;35.00;34.67;;;;;9.30;100.00;99633.84;6284239;20;2861798;-47
2022/05/04 04:11:46;;;;;;;;;43.00;35.67;;;;;9.06;100.00;99633.41;6316514;20;3596083;-49
2022/05/04 04:14:16;;;;;;;;;39.33;35.00;;;;;9.20;100.00;99641.53;6286094;20;3615200;-47
2022/05/04 04:16:45;;;;;;;;;43.33;37.67;;;;;9.01;100.00;99647.91;6318349;20;3607684;-49
2022/05/04 04:19:13;;;;;;;;;37.00;35.50;;;;;9.45;100.00;99647.22;6284962;20;2866930;-46
2022/05/04 04:21:52;;;;;;;;;37.33;28.67;;;;;8.69;100.00;99646.13;6282084;20;3622249;-49
2022/05/04 04:24:22;;;;;;;;;49.00;38.50;;;;;8.58;100.00;99644.03;6316235;20;2856620;-51
2022/05/04 04:26:52;;;;;;;;;44.67;37.67;;;;;9.07;100.00;99654.75;6280266;20;3623203;-48
2022/05/04 04:29:21;;;;;;;;;39.50;34.00;;;;;9.43;99.00;99649.13;6314334;20;2845062;-48
2022/05/04 04:31:50;;;;;;;;;41.00;34.33;;;;;9.88;97.81;99647.38;6282179;20;2856548;-49
2022/05/04 04:34:19;;;;;;;;;43.00;37.33;;;;;9.43;100.00;99656.31;6313992;20;3585713;-47
2022/05/04 04:36:49;;;;;;;;;35.67;34.33;;;;;9.85;100.00;99655.63;6278465;20;2848242;-48
2022/05/04 04:39:18;;;;;;;;;43.00;36.00;;;;;10.44;97.14;99660.19;6315635;20;3607520;-47
2022/05/04 04:41:47;;;;;;;;;37.67;33.67;;;;;10.22;97.98;99658.78;6283816;20;2849389;-49
2022/05/04 04:44:16;;;;;;;;;34.00;31.67;;;;;10.81;95.62;99652.53;6320329;20;3602323;-49
2022/05/04 04:46:45;;;;;;;;;33.00;33.00;;;;;10.97;94.78;99661.31;6287039;20;2858976;-50
2022/05/04 04:49:15;;;;;;;;;36.33;33.00;;;;;10.81;96.23;99655.22;6318937;20;3615220;-49
2022/05/04 04:51:44;;;;;;;;;34.33;32.33;;;;;11.05;96.20;99656.31;6319492;20;3603399;-49
2022/05/04 04:54:13;;;;;;;;;39.00;36.00;;;;;11.55;96.24;99662.06;6283688;20;2854544;-48
2022/05/04 04:56:42;;;;;;;;;34.33;31.00;;;;;12.92;90.46;99661.63;6320117;20;3589840;-51
2022/05/04 04:59:11;;;;;;;;;38.67;35.00;;;;;13.81;84.79;99660.53;6285587;20;3591895;-48
2022/05/04 05:01:40;;;;;;;;;33.00;31.00;;;;;14.08;80.45;99662.97;6278213;20;2862832;-49
2022/05/04 05:04:09;;;;;;;;;35.00;32.00;;;;;15.08;76.71;99672.22;6316502;20;3594055;-48
2022/05/04 05:06:38;;;;;;;;;28.33;26.67;;;;;14.62;79.88;99667.81;6290187;20;3586742;-48
2022/05/04 05:09:07;;;;;;;;;31.67;28.33;;;;;15.77;75.91;99680.16;6287177;20;3586804;-48
2022/05/04 05:11:37;;;;;;;;;25.00;25.00;;;;;16.85;71.29;99680.00;6317521;20;3588807;-47
2022/05/04 05:16:53;;;;;;;;;27.00;27.00;;;;;14.50;81.04;99682.22;6288417;20;3595091;-51
2022/05/04 05:19:22;;;;;;;;;27.33;25.00;;;;;15.32;76.97;99680.22;6288944;20;3597178;-51
2022/05/04 05:21:52;;;;;;;;;28.00;26.33;;;;;15.16;78.22;99677.03;6285532;20;3604465;-51
2022/05/04 05:24:20;;;;;;;;;28.33;27.67;;;;;15.93;73.77;99682.44;6318518;20;3595021;-49
2022/05/04 05:26:49;;;;;;;;;31.33;29.33;;;;;15.18;77.68;99680.47;6287908;20;3608656;-49
2022/05/04 05:29:18;;;;;;;;;33.00;31.00;;;;;15.47;78.62;99675.38;6287119;20;3597565;-50
2022/05/04 05:31:47;;;;;;;;;32.33;28.33;;;;;14.45;81.87;99684.44;6287975;20;3606492;-49
2022/05/04 05:34:15;;;;;;;;;25.67;25.67;;;;;15.48;78.29;99697.88;6287233;20;3585676;-48
2022/05/04 05:36:44;;;;;;;;;32.00;31.33;;;;;14.59;82.02;99695.06;6288355;20;3592960;-47
2022/05/04 05:39:13;;;;;;;;;27.00;26.00;;;;;14.02;84.40;99693.13;6284737;20;3594127;-48
2022/05/04 05:41:42;;;;;;;;;28.00;25.00;;;;;13.92;84.64;99690.25;6283887;20;2847169;-47
2022/05/04 05:44:11;;;;;;;;;28.67;28.67;;;;;13.81;85.92;99693.75;6318033;20;3600283;-47
2022/05/04 05:46:40;;;;;;;;;34.33;29.33;;;;;13.54;88.17;99691.28;6285182;20;3610681;-50
2022/05/04 05:49:09;;;;;;;;;29.00;28.00;;;;;13.69;88.31;99694.69;6319282;20;3598138;-49
2022/05/04 05:51:39;;;;;;;;;26.00;26.00;;;;;13.89;88.52;99690.50;6284737;20;3604383;-48
2022/05/04 05:54:07;;;;;;;;;32.00;30.67;;;;;14.00;87.75;99686.97;6317237;20;3597112;-50
2022/05/04 05:56:37;;;;;;;;;28.33;28.33;;;;;14.13;86.73;99689.63;6286024;20;2856706;-50
2022/05/04 05:59:05;;;;;;;;;33.67;30.67;;;;;14.26;86.25;99693.94;6319250;20;3603392;-49
2022/05/04 06:01:34;;;;;;;;;32.33;29.33;;;;;14.47;85.62;99701.38;6290042;20;3600280;-48
2022/05/04 06:04:05;;;;;;;;;29.00;28.00;;;;;14.48;85.33;99692.28;6285228;20;3597210;-48
2022/05/04 06:06:34;;;;;;;;;35.67;29.00;;;;;14.45;85.54;99697.94;6317814;20;3606532;-46
2022/05/04 06:09:03;;;;;;;;;26.67;26.67;;;;;14.80;84.24;99702.47;6289036;20;3593994;-52
2022/05/04 06:11:52;;;;;;;;;29.00;27.67;;;;;14.88;83.64;99706.28;6285670;20;3601241;-48
2022/05/04 06:14:27;;;;;;;;;33.00;30.00;;;;;14.81;83.82;99712.28;6284932;20;2848288;-49
2022/05/04 06:16:56;;;;;;;;;36.33;29.33;;;;;14.76;83.79;99717.19;6317996;20;3604773;-48
2022/05/04 06:19:25;;;;;;;;;27.67;27.67;;;;;14.82;84.79;99714.00;6286306;20;3595066;-51
2022/05/04 06:21:54;;;;;;;;;31.33;30.00;;;;;15.07;82.80;99708.38;6285485;20;2838906;-49
2022/05/04 06:24:23;;;;;;;;;27.33;27.33;;;;;15.35;82.03;99714.28;6317514;20;3594038;-48
2022/05/04 06:26:52;;;;;;;;;32.33;29.00;;;;;15.62;79.60;99718.44;6285994;20;3593031;-48
2022/05/04 06:29:21;;;;;;;;;29.00;27.00;;;;;15.52;80.34;99716.47;6286034;20;3598164;-49
2022/05/04 06:34:37;;;;;;;;;33.67;30.00;;;;;15.50;81.69;99726.53;6316784;20;3606655;-51
2022/05/04 06:37:06;;;;;;;;;30.67;29.67;;;;;16.17;80.64;99722.00;6289541;20;3603389;-49
2022/05/04 06:39:34;;;;;;;;;36.67;32.33;;;;;16.56;80.93;99727.69;6286035;20;3610771;-49
2022/05/04 06:42:04;;;;;;;;;37.33;34.00;;;;;16.30;81.53;99725.38;6285490;20;2847287;-49
2022/05/04 06:44:33;;;;;;;;;37.00;33.00;;;;;17.27;80.69;99734.16;6318222;20;3592057;-51
2022/05/04 06:47:02;;;;;;;;;35.33;32.00;;;;;18.45;76.01;99736.13;6289471;20;3605500;-49
2022/05/04 06:49:30;;;;;;;;;31.00;30.00;;;;;19.05;73.26;99736.78;6287226;20;3576288;-52
2022/05/04 06:51:59;;;;;;;;;27.67;26.00;;;;;19.43;72.02;99737.66;6283945;20;3595085;-51
2022/05/04 06:54:28;;;;;;;;;27.33;25.00;;;;;18.75;72.59;99731.56;6288249;20;3600370;-51
2022/05/04 06:56:56;;;;;;;;;28.00;25.33;;;;;19.58;71.28;99735.28;6286192;20;3592315;-48
2022/05/04 06:59:26;;;;;;;;;29.00;28.00;;;;;19.55;71.59;99740.19;6285096;20;3579498;-53
2022/05/04 07:01:56;;;;;;;;;27.67;25.00;;;;;20.32;67.12;99744.31;6285970;20;3590901;-49
2022/05/04 07:04:25;;;;;;;;;29.67;26.00;;;;;20.74;66.48;99730.03;6283858;20;3598203;-55
2022/05/04 07:06:54;;;;;;;;;23.67;21.67;;;;;20.50;65.35;99736.97;6286636;20;3582555;-49
2022/05/04 07:09:23;;;;;;;;;23.33;23.33;;;;;20.57;66.42;99745.44;6287765;20;3578399;-50
2022/05/04 07:11:52;;;;;;;;;24.33;22.67;;;;;20.75;65.06;99737.22;6287177;20;3575347;-51
2022/05/04 07:14:21;;;;;;;;;24.33;22.67;;;;;21.10;62.94;99744.47;6283232;20;3582514;-54
2022/05/04 07:16:50;;;;;;;;;21.67;21.67;;;;;20.82;63.20;99739.13;6284568;20;3585655;-55
2022/05/04 07:19:19;;;;;;;;;28.33;24.00;;;;;21.31;62.50;99745.94;6288493;20;3582499;-53
2022/05/04 07:21:47;;;;;;;;;20.67;20.67;;;;;20.81;64.82;99739.31;6284642;20;3577348;-54
2022/05/04 07:24:16;;;;;;;;;27.00;27.00;;;;;21.45;63.21;99737.16;6285712;20;3595137;-54
2022/05/04 07:26:45;;;;;;;;;26.33;23.00;;;;;21.00;63.08;99735.50;6284123;20;3578380;-53
2022/05/04 07:29:14;;;;;;;;;23.33;22.00;;;;;21.05;63.06;99741.34;6287537;20;3581572;-53
2022/05/04 07:31:44;;;;;;;;;25.33;23.67;;;;;21.44;62.04;99740.94;6287549;20;3591018;-52
2022/05/04 07:34:18;;;;;;;;;25.00;22.33;;;;;21.63;61.58;99746.13;6284300;20;3578375;-48
2022/05/04 07:36:46;;;;;;;;;22.67;21.00;;;;;21.58;62.03;99748.50;6285360;20;3587772;-50
2022/05/04 07:42:21;;;;;;;;;24.67;24.00;;;;;22.07;61.06;99747.84;6287137;20;3600173;-51
2022/05/04 07:45:12;;;;;;;;;27.33;23.00;;;;;21.69;62.64;99752.81;6289458;20;3591984;-48
2022/05/04 07:47:40;;;;;;;;;26.67;22.00;;;;;21.69;61.95;99750.94;6291407;20;3577317;-51
2022/05/04 07:50:11;;;;;;;;;21.67;20.33;;;;;22.08;61.00;99752.28;6291142;20;3564939;-53
2022/05/04 07:52:41;;;;;;;;;24.00;22.67;;;;;22.19;59.38;99753.88;6284903;20;3581553;-54
2022/05/04 07:55:10;;;;;;;;;22.67;19.67;;;;;21.30;61.55;99757.88;6290259;20;3567904;-53
2022/05/04 07:57:39;;;;;;;;;21.67;20.33;;;;;21.79;60.74;99758.16;6285898;20;3577334;-54
2022/05/04 08:05:44;;;;;;;;;18.00;17.67;;;;;22.17;58.98;99766.81;6292180;20;3568983;-53
2022/05/04 08:08:13;;;;;;;;;19.67;19.67;;;;;22.22;56.73;99767.19;6292442;20;3570048;-58
2022/05/04 08:10:42;;;;;;;;;18.33;18.33;;;;;22.82;56.25;99769.66;6289312;20;3568969;-58
2022/05/04 08:13:10;;;;;;;;;16.00;16.00;;;;;23.09;55.59;99762.13;6284226;20;2828436;-57
2022/05/04 08:15:39;;;;;;;;;17.67;14.00;;;;;23.03;53.64;99765.56;6292081;20;3550332;-55
2022/05/04 08:18:08;;;;;;;;;14.00;12.00;;;;;23.38;51.21;99762.44;6324692;20;2781539;-54
2022/05/04 08:20:36;;;;;;;;;13.33;13.33;;;;;23.57;52.39;99774.03;6317428;20;3514874;-55
2022/05/04 08:23:05;;;;;;;;;14.33;12.00;;;;;23.65;51.47;99763.03;6317247;20;3521089;-55
2022/05/04 08:25:34;;;;;;;;;16.67;14.00;;;;;23.32;52.33;99768.59;6287744;20;2483653;-53
2022/05/04 08:28:03;;;;;;;;;13.00;13.00;;;;;22.77;54.30;99761.09;6315964;20;2808576;-52
2022/05/04 08:30:32;;;;;;;;;15.00;15.00;;;;;22.75;54.37;99764.03;6286597;20;2814835;-54
2022/05/04 08:33:01;;;;;;;;;17.50;16.50;;;;;22.94;54.58;99764.69;6287789;20;2821168;-54
2022/05/04 08:35:30;;;;;;;;;17.50;16.00;;;;;22.60;54.38;99770.34;6285960;20;2820067;-49
2022/05/04 08:37:59;;;;;;;;;15.50;15.50;;;;;22.96;53.02;99771.75;6288533;20;2806477;-53
2022/05/04 08:40:29;;;;;;;;;17.33;15.33;;;;;23.21;52.60;99771.72;6289886;20;2491930;-52
2022/05/04 08:43:00;;;;;;;;;14.00;14.00;;;;;23.38;51.91;99775.25;6319471;20;2483610;-52
2022/05/04 08:45:29;;;;;;;;;15.33;11.33;;;;;23.14;50.11;99773.44;6319021;20;2483729;-55
2022/05/04 08:48:00;;;;;;;;;13.67;13.67;;;;;23.63;50.58;99767.84;6317566;20;2483568;-54
2022/05/04 08:50:29;;;;;;;;;12.67;12.00;;;;;23.54;48.98;99768.88;6312420;20;3529384;-55
2022/05/04 08:52:57;;;;;;;;;12.00;12.00;;;;;23.37;48.11;99771.66;6288355;20;3528386;-53
2022/05/04 08:55:26;;;;;;;;;14.33;13.33;;;;;23.99;47.78;99767.38;6282418;20;3523259;-50
2022/05/04 08:57:55;;;;;;;;;12.67;12.67;;;;;23.67;48.78;99766.44;6286374;20;3523165;-53
2022/05/04 09:00:24;;;;;;;;;13.67;13.67;;;;;24.05;48.55;99766.66;6318651;20;3537716;-54
2022/05/04 09:02:54;;;;;;;;;13.00;13.00;;;;;24.22;47.43;99771.00;6319170;20;3515997;-56
2022/05/04 09:05:27;;;;;;;;;11.33;11.33;;;;;23.04;47.23;99768.16;6316733;20;3514824;-52
2022/05/04 09:07:59;;;;;;;;;14.00;12.00;;;;;23.69;46.87;99767.13;6323816;20;2799252;-54
2022/05/04 09:10:34;;;;;;;;;12.33;12.00;;;;;23.83;46.46;99771.06;6315901;20;3532602;-57
2022/05/04 09:13:04;;;;;;;;;12.33;12.33;;;;;23.54;45.72;99768.88;6318893;20;3531494;-53
2022/05/04 09:15:35;;;;;;;;;15.00;12.33;;;;;24.02;43.97;99767.88;6320407;20;2479495;-50
2022/05/04 09:18:16;;;;;;;;;13.00;13.00;;;;;24.55;44.56;99764.47;6316370;20;3534692;-57
2022/05/04 09:20:48;;;;;;;;;13.00;12.00;;;;;24.72;43.29;99761.44;6285848;20;3519064;-56
2022/05/04 09:23:31;;;;;;;;;10.00;10.00;;;;;24.29;42.20;99768.38;6288957;20;2481663;-51
2022/05/04 09:26:05;;;;;;;;;10.00;10.00;;;;;23.71;43.29;99765.06;6319149;20;3503782;-52
2022/05/04 09:28:35;;;;;;;;;8.00;8.00;;;;;23.19;42.83;99765.53;6324138;20;2748148;-52
2022/05/04 09:31:07;;;;;;;;;10.00;8.40;;;;;23.75;41.27;99760.09;6339066;20;2774396;-49
2022/05/04 09:33:39;;;;;;;;;8.00;8.00;;;;;23.48;42.25;99764.97;6313607;20;2742149;-51
2022/05/04 09:36:07;;;;;;;;;11.00;9.33;;;;;24.47;41.26;99774.47;6284912;20;2780474;-47
2022/05/04 09:46:58;;;;;;;;;8.33;8.00;;;;;22.89;43.44;99754.25;6319801;20;2756578;-49
2022/05/04 09:49:32;;;;;;;;;8.80;8.80;;;;;23.06;44.46;99757.00;6339870;20;2752424;-47
2022/05/04 09:52:04;;;;;;;;;10.67;10.67;;;;;23.06;44.95;99754.28;6285548;20;3514799;-50
2022/05/04 09:54:33;;;;;;;;;10.33;8.33;;;;;22.18;46.21;99754.88;6314717;20;2769030;-52
2022/05/04 09:57:04;;;;;;;;;10.67;8.00;;;;;22.44;46.32;99761.09;6315188;20;3483540;-47
2022/05/04 09:59:36;;;;;;;;;10.00;9.00;;;;;21.65;48.22;99754.19;6316672;20;2775283;-48
2022/05/04 10:02:09;;;;;;;;;10.00;9.00;;;;;21.66;50.97;99754.00;6312378;20;2773187;-48
2022/05/04 10:04:38;;;;;;;;;11.33;9.67;;;;;21.37;50.42;99748.03;6317394;20;3505504;-48
2022/05/04 10:07:11;;;;;;;;;10.33;10.33;;;;;21.33;49.61;99743.88;6321660;20;2791898;-50
2022/05/04 10:09:41;;;;;;;;;12.33;8.67;;;;;21.28;49.80;99736.22;6323788;20;2766931;-53
2022/05/04 10:12:10;;;;;;;;;11.00;8.33;;;;;21.29;50.12;99737.06;6315088;20;2766944;-51
2022/05/04 10:14:43;;;;;;;;;7.20;7.20;;;;;21.10;50.35;99740.88;6338810;20;2748275;-52
2022/05/04 10:17:22;;;;;;;;;10.33;9.33;;;;;21.10;52.85;99733.53;6282842;20;3489904;-54
2022/05/04 10:20:28;;;;;;;;;10.67;10.67;;;;;20.88;56.87;99739.50;6312125;20;3510699;-51
2022/05/04 10:23:21;;;;;;;;;13.33;13.33;;;;;20.49;62.27;99734.41;6316951;20;3532579;-50
2022/05/04 10:25:51;;;;;;;;;12.33;12.33;;;;;20.58;60.32;99728.03;6315445;20;3523130;-46
2022/05/04 10:28:19;;;;;;;;;14.33;12.00;;;;;20.56;56.46;99728.22;6287015;20;2802859;-52
2022/05/04 10:30:57;;;;;;;;;10.33;10.33;;;;;20.60;52.06;99732.31;6312588;20;3513974;-54
2022/05/04 10:33:35;;;;;;;;;11.00;11.00;;;;;21.32;49.00;99732.13;6316429;20;2791961;-52
2022/05/04 10:36:31;;;;;;;;;11.00;11.00;;;;;21.35;51.65;99730.94;6320182;20;2789822;-52
2022/05/04 10:39:04;;;;;;;;;11.67;11.00;;;;;21.56;53.33;99723.22;6320105;20;2783693;-51
2022/05/04 10:41:38;;;;;;;;;11.00;11.00;;;;;22.22;50.12;99728.91;6320826;20;2794012;-48
2022/05/04 10:44:10;;;;;;;;;11.00;11.00;;;;;22.48;50.02;99724.13;6315215;20;3531545;-52
2022/05/04 10:46:41;;;;;;;;;11.33;11.33;;;;;22.66;49.12;99712.19;6287938;20;2807653;-49
2022/05/04 10:49:13;;;;;;;;;13.67;12.00;;;;;22.28;47.11;99722.78;6312866;20;3538757;-51
2022/05/04 10:51:49;;;;;;;;;10.67;10.67;;;;;22.24;49.33;99716.78;6285086;20;3536690;-55
2022/05/04 10:54:21;;;;;;;;;12.00;12.00;;;;;22.09;48.63;99718.41;6284135;20;3524356;-52
2022/05/04 10:56:56;;;;;;;;;11.67;11.67;;;;;23.12;45.41;99716.09;6282480;20;3518982;-48
2022/05/04 10:59:29;;;;;;;;;11.00;9.67;;;;;22.90;45.23;99722.25;6281242;20;3511787;-52
2022/05/04 11:02:05;;;;;;;;;9.33;9.00;;;;;23.16;44.15;99722.91;6312115;20;3474250;-49
2022/05/04 11:04:36;;;;;;;;;8.00;8.00;;;;;22.56;41.89;99726.03;6316076;20;2737848;-50
2022/05/04 11:07:08;;;;;;;;;9.40;8.20;;;;;22.82;43.58;99720.38;6342555;20;2757564;-49
2022/05/04 11:09:42;;;;;;;;;8.67;8.00;;;;;23.00;41.29;99725.69;6283772;20;2751389;-49
2022/05/04 11:12:13;;;;;;;;;8.00;8.00;;;;;22.77;40.59;99720.03;6339077;20;2751314;-53
2022/05/04 11:14:42;;;;;;;;;9.00;9.00;;;;;22.96;41.33;99725.19;6312701;20;2760691;-50
2022/05/04 11:17:16;;;;;;;;;9.67;9.00;;;;;22.65;45.37;99722.28;6295373;20;2762809;-51
2022/05/04 11:19:47;;;;;;;;;12.33;12.33;;;;;22.89;48.40;99721.41;6316155;20;3530499;-49
2022/05/04 11:22:18;;;;;;;;;9.67;9.67;;;;;22.02;48.04;99722.88;6288244;20;2776381;-55
2022/05/04 11:25:08;;;;;;;;;12.00;10.00;;;;;21.69;48.93;99726.34;6320369;20;3515973;-53
2022/05/04 11:27:37;;;;;;;;;7.60;6.40;;;;;21.49;48.30;99727.66;6342710;20;2739858;-52
2022/05/04 11:30:07;;;;;;;;;10.67;10.67;;;;;21.42;49.26;99732.88;6320431;20;2792075;-49
2022/05/04 11:32:40;;;;;;;;;13.00;13.00;;;;;20.98;53.00;99740.28;6324388;20;2796108;-49
2022/05/04 11:35:14;;;;;;;;;9.33;9.33;;;;;20.50;54.56;99741.56;6327224;20;2770104;-51
2022/05/04 11:37:43;;;;;;;;;12.33;12.33;;;;;19.81;60.25;99741.22;6319876;20;2491967;-50
2022/05/04 11:40:16;;;;;;;;;12.00;12.00;;;;;19.30;66.22;99745.31;6321191;20;2491911;-46
2022/05/04 11:42:45;;;;;;;;;18.00;14.33;;;;;18.92;72.36;99751.72;6288174;20;3546718;-49
2022/05/04 11:45:13;;;;;;;;;11.00;11.00;;;;;18.25;77.17;99739.88;6295953;20;2794133;-48
2022/05/04 11:47:43;;;;;;;;;17.00;17.00;;;;;17.84;77.55;99741.81;6289095;20;2483581;-48